sensor_id;sensor_type;location;lat;lon;timestamp;pressure;altitude;pressure_sealevel;temperature;humidity
4022;BME280;2025;48.260;16.432;2023-07-24T00:01:57;99369.13;;;20.03;81.67
4022;BME280;2025;48.260;16.432;2023-07-24T00:04:24;99374.97;;;19.88;82.28
4022;BME280;2025;48.260;16.432;2023-07-24T00:06:51;99375.16;;;19.82;81.92
4022;BME280;2025;48.260;16.432;2023-07-24T00:09:18;99371.53;;;19.76;82.80
4022;BME280;2025;48.260;16.432;2023-07-24T00:11:46;99371.34;;;19.66;83.06
4022;BME280;2025;48.260;16.432;2023-07-24T00:14:14;99365.63;;;19.62;83.56
4022;BME280;2025;48.260;16.432;2023-07-24T00:16:41;99364.25;;;19.59;83.50
4022;BME280;2025;48.260;16.432;2023-07-24T00:19:08;99362.78;;;19.52;82.94
4022;BME280;2025;48.260;16.432;2023-07-24T00:21:35;99378.91;;;19.57;83.54
4022;BME280;2025;48.260;16.432;2023-07-24T00:24:02;99371.16;;;19.44;83.73
4022;BME280;2025;48.260;16.432;2023-07-24T00:26:29;99372.66;;;19.51;84.05
4022;BME280;2025;48.260;16.432;2023-07-24T00:28:59;99368.84;;;19.47;84.22
4022;BME280;2025;48.260;16.432;2023-07-24T00:31:26;99364.69;;;19.40;84.62
4022;BME280;2025;48.260;16.432;2023-07-24T00:33:53;99350.75;;;19.37;84.99
4022;BME280;2025;48.260;16.432;2023-07-24T00:36:20;99360.72;;;19.42;84.92
4022;BME280;2025;48.260;16.432;2023-07-24T00:38:50;99358.75;;;19.37;84.90
4022;BME280;2025;48.260;16.432;2023-07-24T00:41:16;99371.09;;;19.27;84.72
4022;BME280;2025;48.260;16.432;2023-07-24T00:43:43;99354.22;;;19.38;84.86
4022;BME280;2025;48.260;16.432;2023-07-24T00:46:12;99352.84;;;19.35;86.16
4022;BME280;2025;48.260;16.432;2023-07-24T00:48:40;99347.69;;;19.46;85.23
4022;BME280;2025;48.260;16.432;2023-07-24T00:51:07;99344.63;;;19.37;85.74
4022;BME280;2025;48.260;16.432;2023-07-24T00:53:34;99347.97;;;19.44;85.51
4022;BME280;2025;48.260;16.432;2023-07-24T00:56:01;99351.78;;;19.36;85.26
4022;BME280;2025;48.260;16.432;2023-07-24T00:58:28;99345.19;;;19.27;85.80
4022;BME280;2025;48.260;16.432;2023-07-24T01:00:55;99350.34;;;19.17;86.74
4022;BME280;2025;48.260;16.432;2023-07-24T01:03:33;99350.56;;;19.15;87.00
4022;BME280;2025;48.260;16.432;2023-07-24T01:06:01;99344.91;;;19.12;87.15
4022;BME280;2025;48.260;16.432;2023-07-24T01:08:28;99351.53;;;19.09;87.14
4022;BME280;2025;48.260;16.432;2023-07-24T01:10:57;99356.28;;;19.07;86.87
4022;BME280;2025;48.260;16.432;2023-07-24T01:13:32;99355.81;;;18.99;87.44
4022;BME280;2025;48.260;16.432;2023-07-24T01:16:05;99349.00;;;18.91;88.30
4022;BME280;2025;48.260;16.432;2023-07-24T01:18:38;99358.50;;;18.87;88.42
4022;BME280;2025;48.260;16.432;2023-07-24T01:21:09;99345.38;;;18.85;88.28
4022;BME280;2025;48.260;16.432;2023-07-24T01:23:49;99339.47;;;18.83;88.62
4022;BME280;2025;48.260;16.432;2023-07-24T01:26:21;99343.19;;;18.82;88.61
4022;BME280;2025;48.260;16.432;2023-07-24T01:28:49;99350.13;;;18.83;88.67
4022;BME280;2025;48.260;16.432;2023-07-24T01:31:16;99347.00;;;18.86;88.56
4022;BME280;2025;48.260;16.432;2023-07-24T01:33:43;99345.50;;;18.79;88.45
4022;BME280;2025;48.260;16.432;2023-07-24T01:36:11;99340.38;;;18.65;88.30
4022;BME280;2025;48.260;16.432;2023-07-24T01:38:40;99342.94;;;18.60;88.96
4022;BME280;2025;48.260;16.432;2023-07-24T01:41:08;99339.09;;;18.56;89.08
4022;BME280;2025;48.260;16.432;2023-07-24T01:43:37;99334.47;;;18.51;89.53
4022;BME280;2025;48.260;16.432;2023-07-24T01:46:04;99333.75;;;18.44;89.70
4022;BME280;2025;48.260;16.432;2023-07-24T01:48:31;99347.31;;;18.43;89.19
4022;BME280;2025;48.260;16.432;2023-07-24T01:50:58;99338.16;;;18.39;89.51
4022;BME280;2025;48.260;16.432;2023-07-24T01:53:25;99340.00;;;18.38;89.86
4022;BME280;2025;48.260;16.432;2023-07-24T01:55:52;99334.34;;;18.35;89.92
4022;BME280;2025;48.260;16.432;2023-07-24T01:58:19;99336.41;;;18.32;90.71
4022;BME280;2025;48.260;16.432;2023-07-24T02:00:48;99333.59;;;18.27;89.81
4022;BME280;2025;48.260;16.432;2023-07-24T02:03:15;99342.44;;;18.28;90.75
4022;BME280;2025;48.260;16.432;2023-07-24T02:05:42;99339.66;;;18.23;90.18
4022;BME280;2025;48.260;16.432;2023-07-24T02:08:08;99337.00;;;18.23;90.55
4022;BME280;2025;48.260;16.432;2023-07-24T02:10:37;99327.94;;;18.24;90.49
4022;BME280;2025;48.260;16.432;2023-07-24T02:13:04;99331.06;;;18.21;90.39
4022;BME280;2025;48.260;16.432;2023-07-24T02:15:33;99322.94;;;18.16;89.84
4022;BME280;2025;48.260;16.432;2023-07-24T02:18:01;99319.56;;;18.08;91.49
4022;BME280;2025;48.260;16.432;2023-07-24T02:20:28;99316.91;;;18.08;91.58
4022;BME280;2025;48.260;16.432;2023-07-24T02:22:55;99313.63;;;18.06;91.43
4022;BME280;2025;48.260;16.432;2023-07-24T02:25:22;99318.25;;;17.99;92.34
4022;BME280;2025;48.260;16.432;2023-07-24T02:27:49;99318.25;;;17.99;92.11
4022;BME280;2025;48.260;16.432;2023-07-24T02:30:16;99314.00;;;17.98;92.04
4022;BME280;2025;48.260;16.432;2023-07-24T02:32:43;99316.66;;;17.98;91.70
4022;BME280;2025;48.260;16.432;2023-07-24T02:35:12;99312.38;;;17.97;91.72
4022;BME280;2025;48.260;16.432;2023-07-24T02:37:38;99309.13;;;17.95;92.04
4022;BME280;2025;48.260;16.432;2023-07-24T02:40:07;99306.47;;;17.95;91.61
4022;BME280;2025;48.260;16.432;2023-07-24T02:42:34;99314.47;;;17.95;91.70
4022;BME280;2025;48.260;16.432;2023-07-24T02:45:01;99314.31;;;17.90;91.64
4022;BME280;2025;48.260;16.432;2023-07-24T02:47:29;99314.56;;;17.88;91.43
4022;BME280;2025;48.260;16.432;2023-07-24T02:49:56;99314.97;;;17.85;91.60
4022;BME280;2025;48.260;16.432;2023-07-24T02:52:24;99307.31;;;17.77;92.55
4022;BME280;2025;48.260;16.432;2023-07-24T02:54:51;99299.09;;;17.79;92.52
4022;BME280;2025;48.260;16.432;2023-07-24T02:57:18;99303.59;;;17.78;92.92
4022;BME280;2025;48.260;16.432;2023-07-24T02:59:45;99295.19;;;17.81;93.06
4022;BME280;2025;48.260;16.432;2023-07-24T03:02:12;99295.19;;;17.81;92.66
4022;BME280;2025;48.260;16.432;2023-07-24T03:04:39;99298.25;;;17.78;92.34
4022;BME280;2025;48.260;16.432;2023-07-24T03:07:06;99301.31;;;17.82;93.59
4022;BME280;2025;48.260;16.432;2023-07-24T03:09:34;99301.97;;;17.77;92.94
4022;BME280;2025;48.260;16.432;2023-07-24T03:12:01;99309.59;;;17.74;92.82
4022;BME280;2025;48.260;16.432;2023-07-24T03:14:28;99301.25;;;17.70;92.62
4022;BME280;2025;48.260;16.432;2023-07-24T03:16:55;99298.00;;;17.68;92.36
4022;BME280;2025;48.260;16.432;2023-07-24T03:19:22;99297.63;;;17.64;92.35
4022;BME280;2025;48.260;16.432;2023-07-24T03:21:49;99293.56;;;17.62;92.03
4022;BME280;2025;48.260;16.432;2023-07-24T03:24:16;99293.16;;;17.65;92.13
4022;BME280;2025;48.260;16.432;2023-07-24T03:26:45;99291.50;;;17.64;92.08
4022;BME280;2025;48.260;16.432;2023-07-24T03:29:12;99288.25;;;17.62;92.51
4022;BME280;2025;48.260;16.432;2023-07-24T03:31:39;99287.66;;;17.60;92.15
4022;BME280;2025;48.260;16.432;2023-07-24T03:34:06;99287.31;;;17.56;92.30
4022;BME280;2025;48.260;16.432;2023-07-24T03:36:33;99282.78;;;17.57;92.45
4022;BME280;2025;48.260;16.432;2023-07-24T03:39:01;99285.47;;;17.57;92.38
4022;BME280;2025;48.260;16.432;2023-07-24T03:41:28;99281.19;;;17.56;92.36
4022;BME280;2025;48.260;16.432;2023-07-24T03:43:56;99282.78;;;17.57;92.32
4022;BME280;2025;48.260;16.432;2023-07-24T03:46:23;99277.25;;;17.58;92.62
4022;BME280;2025;48.260;16.432;2023-07-24T03:48:50;99285.38;;;17.63;92.59
4022;BME280;2025;48.260;16.432;2023-07-24T03:51:17;99285.75;;;17.67;92.71
4022;BME280;2025;48.260;16.432;2023-07-24T03:53:44;99285.63;;;17.74;92.79
4022;BME280;2025;48.260;16.432;2023-07-24T03:56:11;99287.38;;;17.80;92.59
4022;BME280;2025;48.260;16.432;2023-07-24T03:58:38;99292.88;;;17.85;92.77
4022;BME280;2025;48.260;16.432;2023-07-24T04:01:07;99290.56;;;17.88;92.71
4022;BME280;2025;48.260;16.432;2023-07-24T04:03:34;99293.94;;;17.96;92.17
4022;BME280;2025;48.260;16.432;2023-07-24T04:06:01;99301.94;;;17.96;92.60
4022;BME280;2025;48.260;16.432;2023-07-24T04:08:28;99303.91;;;18.00;92.36
4022;BME280;2025;48.260;16.432;2023-07-24T04:10:55;99301.16;;;18.07;92.10
4022;BME280;2025;48.260;16.432;2023-07-24T04:13:22;99292.69;;;18.10;91.96
4022;BME280;2025;48.260;16.432;2023-07-24T04:15:49;99291.41;;;18.13;92.02
4022;BME280;2025;48.260;16.432;2023-07-24T04:18:18;99289.56;;;18.13;91.66
4022;BME280;2025;48.260;16.432;2023-07-24T04:20:45;99295.13;;;18.11;91.14
4022;BME280;2025;48.260;16.432;2023-07-24T04:23:11;99298.38;;;18.14;91.26
4022;BME280;2025;48.260;16.432;2023-07-24T04:25:38;99294.88;;;18.13;91.14
4022;BME280;2025;48.260;16.432;2023-07-24T04:28:05;99297.34;;;18.15;91.18
4022;BME280;2025;48.260;16.432;2023-07-24T04:30:32;99294.19;;;18.18;90.66
4022;BME280;2025;48.260;16.432;2023-07-24T04:32:59;99305.44;;;18.20;90.64
4022;BME280;2025;48.260;16.432;2023-07-24T04:35:28;99292.72;;;18.22;90.81
4022;BME280;2025;48.260;16.432;2023-07-24T04:37:55;99295.75;;;18.25;90.30
4022;BME280;2025;48.260;16.432;2023-07-24T04:40:22;99291.91;;;18.45;87.53
4022;BME280;2025;48.260;16.432;2023-07-24T04:42:49;99292.25;;;18.48;89.01
4022;BME280;2025;48.260;16.432;2023-07-24T04:45:16;99301.31;;;18.47;89.92
4022;BME280;2025;48.260;16.432;2023-07-24T04:47:43;99282.75;;;18.52;88.74
4022;BME280;2025;48.260;16.432;2023-07-24T04:50:10;99297.34;;;18.73;87.40
4022;BME280;2025;48.260;16.432;2023-07-24T04:52:39;99291.34;;;18.78;86.95
4022;BME280;2025;48.260;16.432;2023-07-24T04:55:06;99296.44;;;18.80;87.17
4022;BME280;2025;48.260;16.432;2023-07-24T04:57:33;99292.84;;;18.98;84.34
4022;BME280;2025;48.260;16.432;2023-07-24T05:00:00;99289.09;;;18.99;84.25
4022;BME280;2025;48.260;16.432;2023-07-24T05:02:27;99288.75;;;19.07;83.11
4022;BME280;2025;48.260;16.432;2023-07-24T05:04:54;99287.91;;;19.06;83.63
4022;BME280;2025;48.260;16.432;2023-07-24T05:07:21;99292.41;;;19.17;82.21
4022;BME280;2025;48.260;16.432;2023-07-24T05:09:50;99297.34;;;19.37;80.94
4022;BME280;2025;48.260;16.432;2023-07-24T05:12:17;99301.69;;;19.55;80.29
4022;BME280;2025;48.260;16.432;2023-07-24T05:14:44;99291.09;;;19.72;79.92
4022;BME280;2025;48.260;16.432;2023-07-24T05:17:11;99290.78;;;20.03;78.69
4022;BME280;2025;48.260;16.432;2023-07-24T05:19:38;99289.84;;;20.26;77.18
4022;BME280;2025;48.260;16.432;2023-07-24T05:22:05;99287.31;;;20.36;76.91
4022;BME280;2025;48.260;16.432;2023-07-24T05:24:33;99277.91;;;20.33;76.93
4022;BME280;2025;48.260;16.432;2023-07-24T05:27:01;99290.78;;;20.36;75.61
4022;BME280;2025;48.260;16.432;2023-07-24T05:29:28;99293.28;;;20.43;76.59
4022;BME280;2025;48.260;16.432;2023-07-24T05:31:55;99290.59;;;20.60;75.43
4022;BME280;2025;48.260;16.432;2023-07-24T05:34:24;99296.13;;;20.70;74.14
4022;BME280;2025;48.260;16.432;2023-07-24T05:36:51;99293.81;;;20.79;74.24
4022;BME280;2025;48.260;16.432;2023-07-24T05:39:18;99284.44;;;20.98;73.13
4022;BME280;2025;48.260;16.432;2023-07-24T05:41:45;99285.75;;;20.96;72.95
4022;BME280;2025;48.260;16.432;2023-07-24T05:44:15;99283.63;;;20.98;73.27
4022;BME280;2025;48.260;16.432;2023-07-24T05:46:42;99283.38;;;20.99;73.13
4022;BME280;2025;48.260;16.432;2023-07-24T05:49:09;99282.06;;;21.02;73.86
4022;BME280;2025;48.260;16.432;2023-07-24T05:51:35;99286.19;;;21.10;73.81
4022;BME280;2025;48.260;16.432;2023-07-24T05:54:02;99281.19;;;21.18;71.27
4022;BME280;2025;48.260;16.432;2023-07-24T05:56:29;99283.66;;;21.25;72.10
4022;BME280;2025;48.260;16.432;2023-07-24T05:58:56;99282.72;;;21.36;72.79
4022;BME280;2025;48.260;16.432;2023-07-24T06:01:25;99285.16;;;21.38;70.19
4022;BME280;2025;48.260;16.432;2023-07-24T06:03:52;99279.63;;;21.44;70.04
4022;BME280;2025;48.260;16.432;2023-07-24T06:06:19;99286.25;;;21.64;71.02
4022;BME280;2025;48.260;16.432;2023-07-24T06:08:47;99272.53;;;21.87;70.09
4022;BME280;2025;48.260;16.432;2023-07-24T06:11:14;99272.69;;;22.03;68.18
4022;BME280;2025;48.260;16.432;2023-07-24T06:13:41;99264.69;;;22.13;69.06
4022;BME280;2025;48.260;16.432;2023-07-24T06:16:08;99260.00;;;22.30;68.69
4022;BME280;2025;48.260;16.432;2023-07-24T06:18:37;99257.91;;;22.38;67.46
4022;BME280;2025;48.260;16.432;2023-07-24T06:21:04;99255.06;;;22.49;65.19
4022;BME280;2025;48.260;16.432;2023-07-24T06:23:31;99252.22;;;22.71;64.50
4022;BME280;2025;48.260;16.432;2023-07-24T06:25:58;99236.47;;;22.96;63.90
4022;BME280;2025;48.260;16.432;2023-07-24T06:28:25;99241.13;;;23.16;63.09
4022;BME280;2025;48.260;16.432;2023-07-24T06:30:52;99234.72;;;23.32;62.11
4022;BME280;2025;48.260;16.432;2023-07-24T06:33:19;99222.13;;;23.53;62.10
4022;BME280;2025;48.260;16.432;2023-07-24T06:35:49;99223.47;;;23.66;61.29
4022;BME280;2025;48.260;16.432;2023-07-24T06:38:16;99211.13;;;23.75;61.10
4022;BME280;2025;48.260;16.432;2023-07-24T06:40:43;99209.53;;;23.89;60.98
4022;BME280;2025;48.260;16.432;2023-07-24T06:43:10;99215.44;;;24.02;62.57
4022;BME280;2025;48.260;16.432;2023-07-24T06:45:37;99215.69;;;24.15;63.63
4022;BME280;2025;48.260;16.432;2023-07-24T06:48:05;99209.47;;;24.30;65.29
4022;BME280;2025;48.260;16.432;2023-07-24T06:50:32;99216.97;;;24.54;66.08
4022;BME280;2025;48.260;16.432;2023-07-24T06:53:00;99222.81;;;24.76;66.09
4022;BME280;2025;48.260;16.432;2023-07-24T06:55:27;99221.91;;;24.96;66.03
4022;BME280;2025;48.260;16.432;2023-07-24T06:57:54;99221.03;;;25.11;65.80
4022;BME280;2025;48.260;16.432;2023-07-24T07:00:21;99217.50;;;25.21;66.44
4022;BME280;2025;48.260;16.432;2023-07-24T07:02:48;99212.34;;;25.30;66.76
4022;BME280;2025;48.260;16.432;2023-07-24T07:05:15;99208.22;;;25.37;65.50
4022;BME280;2025;48.260;16.432;2023-07-24T07:07:42;99205.88;;;25.26;66.20
4022;BME280;2025;48.260;16.432;2023-07-24T07:10:10;99201.06;;;25.22;65.77
4022;BME280;2025;48.260;16.432;2023-07-24T07:12:37;99187.88;;;25.16;65.83
4022;BME280;2025;48.260;16.432;2023-07-24T07:15:05;99180.53;;;25.32;66.34
4022;BME280;2025;48.260;16.432;2023-07-24T07:17:32;99176.38;;;25.44;65.34
4022;BME280;2025;48.260;16.432;2023-07-24T07:19:59;99169.78;;;25.61;64.20
4022;BME280;2025;48.260;16.432;2023-07-24T07:22:26;99170.25;;;25.68;63.31
4022;BME280;2025;48.260;16.432;2023-07-24T07:24:53;99176.16;;;25.70;63.11
4022;BME280;2025;48.260;16.432;2023-07-24T07:27:21;99173.16;;;25.77;63.17
4022;BME280;2025;48.260;16.432;2023-07-24T07:29:48;99178.75;;;25.85;62.85
4022;BME280;2025;48.260;16.432;2023-07-24T07:32:15;99176.22;;;25.99;63.49
4022;BME280;2025;48.260;16.432;2023-07-24T07:34:43;99168.72;;;25.91;63.22
4022;BME280;2025;48.260;16.432;2023-07-24T07:37:10;99169.91;;;26.09;63.28
4022;BME280;2025;48.260;16.432;2023-07-24T07:39:36;99173.97;;;26.31;63.61
4022;BME280;2025;48.260;16.432;2023-07-24T07:42:04;99163.56;;;26.43;60.60
4022;BME280;2025;48.260;16.432;2023-07-24T07:44:32;99159.81;;;26.44;60.55
4022;BME280;2025;48.260;16.432;2023-07-24T07:46:59;99160.66;;;26.39;60.52
4022;BME280;2025;48.260;16.432;2023-07-24T07:49:26;99162.59;;;26.34;60.84
4022;BME280;2025;48.260;16.432;2023-07-24T07:51:53;99152.84;;;26.38;60.87
4022;BME280;2025;48.260;16.432;2023-07-24T07:54:20;99151.69;;;26.44;59.61
4022;BME280;2025;48.260;16.432;2023-07-24T07:56:47;99159.00;;;26.43;60.54
4022;BME280;2025;48.260;16.432;2023-07-24T07:59:14;99151.09;;;26.71;59.65
4022;BME280;2025;48.260;16.432;2023-07-24T08:01:42;99142.94;;;26.76;59.17
4022;BME280;2025;48.260;16.432;2023-07-24T08:04:11;99137.06;;;26.69;60.92
4022;BME280;2025;48.260;16.432;2023-07-24T08:06:38;99135.66;;;26.77;59.65
4022;BME280;2025;48.260;16.432;2023-07-24T08:09:05;99127.63;;;26.90;58.82
4022;BME280;2025;48.260;16.432;2023-07-24T08:11:32;99124.84;;;26.96;59.35
4022;BME280;2025;48.260;16.432;2023-07-24T08:13:59;99121.09;;;26.91;59.68
4022;BME280;2025;48.260;16.432;2023-07-24T08:16:25;99117.25;;;26.98;59.33
4022;BME280;2025;48.260;16.432;2023-07-24T08:18:54;99119.94;;;27.17;59.05
4022;BME280;2025;48.260;16.432;2023-07-24T08:21:21;99105.97;;;27.28;59.06
4022;BME280;2025;48.260;16.432;2023-07-24T08:23:48;99106.31;;;27.41;58.77
4022;BME280;2025;48.260;16.432;2023-07-24T08:26:15;99099.13;;;27.50;57.45
4022;BME280;2025;48.260;16.432;2023-07-24T08:28:42;99095.19;;;27.75;56.35
4022;BME280;2025;48.260;16.432;2023-07-24T08:31:09;99091.41;;;27.90;54.16
4022;BME280;2025;48.260;16.432;2023-07-24T08:33:36;99094.66;;;27.73;54.96
4022;BME280;2025;48.260;16.432;2023-07-24T08:36:06;99096.53;;;27.91;54.41
4022;BME280;2025;48.260;16.432;2023-07-24T08:38:33;99091.91;;;28.06;54.15
4022;BME280;2025;48.260;16.432;2023-07-24T08:41:01;99091.50;;;28.12;54.33
4022;BME280;2025;48.260;16.432;2023-07-24T08:43:29;99086.88;;;28.27;53.86
4022;BME280;2025;48.260;16.432;2023-07-24T08:45:58;99071.75;;;28.40;53.13
4022;BME280;2025;48.260;16.432;2023-07-24T08:48:26;99076.53;;;28.56;51.68
4022;BME280;2025;48.260;16.432;2023-07-24T08:50:53;99084.03;;;28.60;49.97
4022;BME280;2025;48.260;16.432;2023-07-24T08:53:22;99089.28;;;28.56;51.33
4022;BME280;2025;48.260;16.432;2023-07-24T08:55:51;99079.25;;;28.56;50.53
4022;BME280;2025;48.260;16.432;2023-07-24T08:58:20;99090.09;;;28.56;49.94
4022;BME280;2025;48.260;16.432;2023-07-24T09:00:47;99074.91;;;28.55;49.83
4022;BME280;2025;48.260;16.432;2023-07-24T09:03:14;99076.22;;;28.72;50.05
4022;BME280;2025;48.260;16.432;2023-07-24T09:05:41;99080.09;;;29.02;47.85
4022;BME280;2025;48.260;16.432;2023-07-24T09:08:08;99070.81;;;29.17;46.41
4022;BME280;2025;48.260;16.432;2023-07-24T09:10:36;99073.97;;;29.33;47.83
4022;BME280;2025;48.260;16.432;2023-07-24T09:13:03;99060.75;;;29.40;45.74
4022;BME280;2025;48.260;16.432;2023-07-24T09:15:39;99066.88;;;29.54;46.47
4022;BME280;2025;48.260;16.432;2023-07-24T09:18:06;99064.81;;;29.60;46.21
4022;BME280;2025;48.260;16.432;2023-07-24T09:20:39;99063.06;;;29.55;44.42
4022;BME280;2025;48.260;16.432;2023-07-24T09:23:07;99056.84;;;29.55;45.72
4022;BME280;2025;48.260;16.432;2023-07-24T09:25:37;99049.16;;;29.79;45.45
4022;BME280;2025;48.260;16.432;2023-07-24T09:28:11;99042.34;;;29.99;44.59
4022;BME280;2025;48.260;16.432;2023-07-24T09:30:39;99038.22;;;30.11;44.11
4022;BME280;2025;48.260;16.432;2023-07-24T09:33:06;99034.38;;;30.03;43.29
4022;BME280;2025;48.260;16.432;2023-07-24T09:35:34;99037.91;;;30.12;44.02
4022;BME280;2025;48.260;16.432;2023-07-24T09:38:04;99034.16;;;30.31;43.33
4022;BME280;2025;48.260;16.432;2023-07-24T09:40:44;99026.00;;;30.57;43.81
4022;BME280;2025;48.260;16.432;2023-07-24T09:43:16;99018.97;;;30.82;41.95
4022;BME280;2025;48.260;16.432;2023-07-24T09:45:43;99006.81;;;31.05;41.22
4022;BME280;2025;48.260;16.432;2023-07-24T09:48:12;99007.41;;;31.20;40.74
4022;BME280;2025;48.260;16.432;2023-07-24T09:50:41;99002.38;;;31.30;40.88
4022;BME280;2025;48.260;16.432;2023-07-24T09:53:12;98988.94;;;31.34;40.54
4022;BME280;2025;48.260;16.432;2023-07-24T09:55:47;98984.13;;;31.48;40.82
4022;BME280;2025;48.260;16.432;2023-07-24T09:58:16;98988.34;;;31.28;40.01
4022;BME280;2025;48.260;16.432;2023-07-24T10:00:45;98987.31;;;30.86;39.94
4022;BME280;2025;48.260;16.432;2023-07-24T10:03:14;98981.88;;;30.86;40.36
4022;BME280;2025;48.260;16.432;2023-07-24T10:05:42;98983.63;;;30.91;39.74
4022;BME280;2025;48.260;16.432;2023-07-24T10:08:10;98974.03;;;30.93;40.25
4022;BME280;2025;48.260;16.432;2023-07-24T10:10:38;98972.59;;;30.96;38.94
4022;BME280;2025;48.260;16.432;2023-07-24T10:13:08;98968.28;;;30.95;38.78
4022;BME280;2025;48.260;16.432;2023-07-24T10:15:37;98963.28;;;31.05;39.71
4022;BME280;2025;48.260;16.432;2023-07-24T10:18:06;98947.31;;;30.95;39.87
4022;BME280;2025;48.260;16.432;2023-07-24T10:20:33;98945.50;;;31.17;38.29
4022;BME280;2025;48.260;16.432;2023-07-24T10:23:02;98929.50;;;31.54;38.73
4022;BME280;2025;48.260;16.432;2023-07-24T10:25:30;98918.53;;;32.01;37.16
4022;BME280;2025;48.260;16.432;2023-07-24T10:28:02;98915.41;;;32.44;37.23
4022;BME280;2025;48.260;16.432;2023-07-24T10:30:34;98903.63;;;32.73;35.08
4022;BME280;2025;48.260;16.432;2023-07-24T10:33:09;98902.63;;;33.03;36.76
4022;BME280;2025;48.260;16.432;2023-07-24T10:35:38;98896.53;;;33.43;35.00
4022;BME280;2025;48.260;16.432;2023-07-24T10:38:05;98888.63;;;33.90;33.32
4022;BME280;2025;48.260;16.432;2023-07-24T10:40:33;98886.38;;;33.80;33.02
4022;BME280;2025;48.260;16.432;2023-07-24T10:43:01;98887.78;;;34.02;34.93
4022;BME280;2025;48.260;16.432;2023-07-24T10:45:47;98870.72;;;34.33;33.66
4022;BME280;2025;48.260;16.432;2023-07-24T10:48:15;98868.16;;;34.25;33.33
4022;BME280;2025;48.260;16.432;2023-07-24T10:50:43;98864.34;;;34.13;34.23
4022;BME280;2025;48.260;16.432;2023-07-24T10:53:10;98861.78;;;33.92;35.24
4022;BME280;2025;48.260;16.432;2023-07-24T10:55:38;98858.25;;;33.92;33.63
4022;BME280;2025;48.260;16.432;2023-07-24T10:58:06;98849.56;;;33.49;34.56
4022;BME280;2025;48.260;16.432;2023-07-24T11:00:33;98842.25;;;33.78;33.86
4022;BME280;2025;48.260;16.432;2023-07-24T11:03:01;98838.38;;;33.79;33.41
4022;BME280;2025;48.260;16.432;2023-07-24T11:05:29;98833.56;;;34.45;32.69
4022;BME280;2025;48.260;16.432;2023-07-24T11:07:56;98820.19;;;34.87;32.60
4022;BME280;2025;48.260;16.432;2023-07-24T11:10:23;98819.47;;;35.06;32.59
4022;BME280;2025;48.260;16.432;2023-07-24T11:12:51;98813.38;;;35.13;34.07
4022;BME280;2025;48.260;16.432;2023-07-24T11:15:24;98803.75;;;34.87;34.50
4022;BME280;2025;48.260;16.432;2023-07-24T11:17:52;98799.47;;;34.70;32.96
4022;BME280;2025;48.260;16.432;2023-07-24T11:20:20;98807.22;;;34.84;33.02
4022;BME280;2025;48.260;16.432;2023-07-24T11:22:47;98801.91;;;35.23;31.81
4022;BME280;2025;48.260;16.432;2023-07-24T11:25:14;98790.97;;;35.07;31.65
4022;BME280;2025;48.260;16.432;2023-07-24T11:27:42;98782.50;;;35.12;32.03
4022;BME280;2025;48.260;16.432;2023-07-24T11:30:11;98777.06;;;34.65;33.00
4022;BME280;2025;48.260;16.432;2023-07-24T11:32:39;98767.94;;;34.13;32.83
4022;BME280;2025;48.260;16.432;2023-07-24T11:35:07;98757.97;;;33.76;35.14
4022;BME280;2025;48.260;16.432;2023-07-24T11:37:36;98747.56;;;33.66;32.56
4022;BME280;2025;48.260;16.432;2023-07-24T11:40:04;98742.50;;;33.68;33.54
4022;BME280;2025;48.260;16.432;2023-07-24T11:42:37;98735.13;;;33.97;32.96
4022;BME280;2025;48.260;16.432;2023-07-24T11:45:06;98747.31;;;34.15;32.84
4022;BME280;2025;48.260;16.432;2023-07-24T11:47:45;98733.56;;;34.12;32.30
4022;BME280;2025;48.260;16.432;2023-07-24T11:50:12;98716.47;;;34.15;31.85
4022;BME280;2025;48.260;16.432;2023-07-24T11:52:42;98721.50;;;34.29;31.83
4022;BME280;2025;48.260;16.432;2023-07-24T11:55:11;98717.88;;;34.40;31.74
4022;BME280;2025;48.260;16.432;2023-07-24T11:57:39;98718.75;;;34.29;31.48
4022;BME280;2025;48.260;16.432;2023-07-24T12:00:18;98716.25;;;33.92;32.00
4022;BME280;2025;48.260;16.432;2023-07-24T12:02:45;98718.50;;;33.74;33.03
4022;BME280;2025;48.260;16.432;2023-07-24T12:05:13;98709.94;;;33.60;33.13
4022;BME280;2025;48.260;16.432;2023-07-24T12:07:42;98713.63;;;33.67;33.29
4022;BME280;2025;48.260;16.432;2023-07-24T12:10:12;98707.00;;;33.96;34.60
4022;BME280;2025;48.260;16.432;2023-07-24T12:12:40;98710.59;;;34.13;32.66
4022;BME280;2025;48.260;16.432;2023-07-24T12:15:08;98696.59;;;33.86;32.62
4022;BME280;2025;48.260;16.432;2023-07-24T12:17:35;98690.16;;;33.78;32.51
4022;BME280;2025;48.260;16.432;2023-07-24T12:20:03;98685.19;;;33.68;32.71
4022;BME280;2025;48.260;16.432;2023-07-24T12:22:31;98685.22;;;33.56;33.04
4022;BME280;2025;48.260;16.432;2023-07-24T12:25:00;98684.38;;;33.40;33.63
4022;BME280;2025;48.260;16.432;2023-07-24T12:27:27;98680.59;;;33.16;34.36
4022;BME280;2025;48.260;16.432;2023-07-24T12:29:54;98670.53;;;32.92;34.14
4022;BME280;2025;48.260;16.432;2023-07-24T12:32:21;98670.84;;;33.03;34.83
4022;BME280;2025;48.260;16.432;2023-07-24T12:34:49;98661.56;;;33.32;34.25
4022;BME280;2025;48.260;16.432;2023-07-24T12:37:17;98670.94;;;33.75;33.43
4022;BME280;2025;48.260;16.432;2023-07-24T12:39:44;98664.63;;;34.03;32.91
4022;BME280;2025;48.260;16.432;2023-07-24T12:42:12;98664.19;;;34.00;33.97
4022;BME280;2025;48.260;16.432;2023-07-24T12:44:40;98666.16;;;34.16;33.32
4022;BME280;2025;48.260;16.432;2023-07-24T12:47:07;98656.44;;;34.03;33.86
4022;BME280;2025;48.260;16.432;2023-07-24T12:49:34;98646.31;;;33.87;34.42
4022;BME280;2025;48.260;16.432;2023-07-24T12:52:02;98647.28;;;33.95;34.49
4022;BME280;2025;48.260;16.432;2023-07-24T12:54:29;98635.75;;;34.02;35.39
4022;BME280;2025;48.260;16.432;2023-07-24T12:56:56;98632.28;;;34.05;34.42
4022;BME280;2025;48.260;16.432;2023-07-24T12:59:24;98629.28;;;33.94;34.51
4022;BME280;2025;48.260;16.432;2023-07-24T13:01:51;98624.03;;;33.85;35.20
4022;BME280;2025;48.260;16.432;2023-07-24T13:04:19;98622.09;;;34.02;35.41
4022;BME280;2025;48.260;16.432;2023-07-24T13:06:46;98618.03;;;34.27;34.19
4022;BME280;2025;48.260;16.432;2023-07-24T13:09:13;98611.47;;;34.48;34.06
4022;BME280;2025;48.260;16.432;2023-07-24T13:11:40;98603.78;;;34.53;33.52
4022;BME280;2025;48.260;16.432;2023-07-24T13:14:07;98594.53;;;34.58;33.98